Time;durP1;ratioP1;P1;durP2;ratioP2;P2;SDS_P1;SDS_P2;PMS_P1;PMS_P2;Temp;Humidity;BMP_temperature;BMP_pressure;BME280_temperature;BME280_humidity;BME280_pressure;Samples;Min_cycle;Max_cycle;Signal;HPM_P1;HPM_P2
2020/12/21 00:02:49;;;;;;;62.97;26.70;;;;;;;0.55;85.25;101549.20;5043795;57;1138474;-86
2020/12/21 00:07:54;;;;;;;55.78;24.67;;;;;;;0.55;85.11;101555.72;5059490;57;1138507;-86
2020/12/21 00:13:00;;;;;;;57.83;24.63;;;;;;;0.56;85.02;101546.16;5067989;57;1138407;-86
2020/12/21 00:18:05;;;;;;;47.60;22.43;;;;;;;0.52;84.59;101541.45;5060150;57;1138271;-86
2020/12/21 00:23:11;;;;;;;52.67;22.50;;;;;;;0.50;84.66;101531.52;5080452;57;1138703;-86
2020/12/21 00:28:17;;;;;;;50.90;23.10;;;;;;;0.47;84.56;101530.27;5066929;57;1138410;-86
2020/12/21 00:33:22;;;;;;;55.17;23.17;;;;;;;0.46;84.48;101531.15;5116359;57;1138449;-86
2020/12/21 00:38:28;;;;;;;52.10;24.27;;;;;;;0.43;84.57;101532.54;5061241;57;1138545;-87
2020/12/21 00:43:33;;;;;;;54.67;24.43;;;;;;;0.42;84.68;101540.38;5088054;57;1138511;-87
2020/12/21 00:48:39;;;;;;;57.87;23.60;;;;;;;0.44;84.68;101535.55;5092352;57;1138312;-86
2020/12/21 00:53:46;;;;;;;62.90;26.97;;;;;;;0.46;84.71;101538.95;5114057;57;1138403;-86
2020/12/21 00:58:52;;;;;;;54.45;22.95;;;;;;;0.44;84.59;101536.00;5054811;57;1138309;-86
2020/12/21 01:04:00;;;;;;;54.03;24.17;;;;;;;0.42;84.39;101536.47;5062795;57;1138681;-86
2020/12/21 01:09:10;;;;;;;55.93;22.97;;;;;;;0.39;84.58;101542.59;5100721;57;1138246;-86
2020/12/21 01:14:16;;;;;;;42.57;20.10;;;;;;;0.41;84.60;101543.42;5109309;57;1138398;-87
2020/12/21 01:19:21;;;;;;;48.23;22.33;;;;;;;0.42;84.40;101541.23;5062300;57;1138390;-87
2020/12/21 01:24:26;;;;;;;53.47;22.20;;;;;;;0.40;84.47;101537.80;5155151;57;1136337;-87
2020/12/21 01:29:32;;;;;;;49.27;21.87;;;;;;;0.36;84.43;101532.23;5059869;57;1138566;-86
2020/12/21 01:34:37;;;;;;;54.15;25.55;;;;;;;0.38;84.41;101537.41;5064042;57;1138331;-88
2020/12/21 01:39:48;;;;;;;53.60;23.83;;;;;;;0.32;84.42;101531.42;5097258;57;1138432;-86
2020/12/21 01:44:50;;;;;;;47.87;21.17;;;;;;;0.32;84.42;101531.42;5064348;57;1138338;-87
2020/12/21 01:49:56;;;;;;;54.33;22.53;;;;;;;0.32;84.37;101528.83;5090297;57;1138316;-87
2020/12/21 01:55:03;;;;;;;46.67;23.90;;;;;;;0.29;84.35;101528.05;5069298;57;1138381;-87
2020/12/21 02:00:09;;;;;;;53.90;23.27;;;;;;;0.24;84.37;101522.06;5026295;57;1138268;-87
2020/12/21 02:05:20;;;;;;;57.87;26.10;;;;;;;0.21;84.21;101529.48;5142340;57;1138280;-86
2020/12/21 02:10:26;;;;;;;55.60;26.43;;;;;;;0.18;84.39;101537.78;5088394;57;1138303;-86
2020/12/21 02:15:32;;;;;;;53.55;24.12;;;;;;;0.18;84.51;101523.03;5076642;57;1138310;-86
2020/12/21 02:20:37;;;;;;;55.47;24.63;;;;;;;0.13;84.17;101514.48;5064244;57;1138411;-86
2020/12/21 02:25:43;;;;;;;50.27;23.13;;;;;;;0.12;84.41;101524.46;5062418;57;1138508;-86
2020/12/21 02:30:49;;;;;;;52.03;24.90;;;;;;;0.12;84.50;101524.91;5110316;57;1138286;-85
2020/12/21 02:35:54;;;;;;;53.10;25.87;;;;;;;0.14;84.48;101523.14;5074222;57;1138389;-86
2020/12/21 02:41:00;;;;;;;52.37;23.80;;;;;;;0.11;84.50;101521.89;5100423;57;1138241;-86
2020/12/21 02:46:11;;;;;;;52.70;23.03;;;;;;;0.09;84.50;101516.70;5121441;57;1138409;-86
2020/12/21 02:51:17;;;;;;;53.83;22.77;;;;;;;0.04;84.49;101519.83;5068028;57;1138287;-86
2020/12/21 02:56:23;;;;;;;54.57;23.00;;;;;;;0.00;84.41;101513.81;5115217;57;1136173;-86
2020/12/21 03:01:29;;;;;;;49.25;23.42;;;;;;;0.01;84.40;101519.88;5091610;57;1138722;-86
2020/12/21 03:06:34;;;;;;;54.47;24.37;;;;;;;-0.01;84.47;101509.53;5074350;57;1138609;-87
2020/12/21 03:11:41;;;;;;;53.20;23.23;;;;;;;0.01;84.33;101506.88;5059505;57;1140451;-86
2020/12/21 03:16:47;;;;;;;53.63;25.43;;;;;;;0.01;84.34;101504.27;5060505;57;1138345;-86
2020/12/21 03:21:52;;;;;;;52.07;24.67;;;;;;;0.00;84.37;101508.61;5068702;57;1138238;-86
2020/12/21 03:26:58;;;;;;;48.83;22.77;;;;;;;0.00;84.24;101496.09;5054915;57;1138364;-87
2020/12/21 03:32:03;;;;;;;55.90;26.07;;;;;;;0.00;84.35;101492.19;5059155;57;1138404;-86
2020/12/21 03:37:09;;;;;;;56.33;24.80;;;;;;;-0.03;84.25;101493.53;5111951;57;1138364;-85
2020/12/21 03:42:15;;;;;;;59.37;25.43;;;;;;;-0.03;84.44;101488.34;5053600;57;1140429;-86
2020/12/21 03:47:20;;;;;;;54.20;25.77;;;;;;;-0.01;84.69;101490.03;5086948;57;1140558;-86
2020/12/21 03:52:26;;;;;;;49.10;23.60;;;;;;;0.07;84.87;101487.71;5058898;57;1140811;-86
2020/12/21 03:57:31;;;;;;;50.20;24.83;;;;;;;0.14;85.03;101486.28;5060186;57;1138789;-86
2020/12/21 04:02:37;;;;;;;47.67;22.40;;;;;;;0.20;85.07;101491.78;5053521;57;1138532;-86
2020/12/21 04:07:43;;;;;;;53.70;26.50;;;;;;;0.26;85.03;101491.23;5125995;57;1138567;-86
2020/12/21 04:12:48;;;;;;;53.63;25.23;;;;;;;0.30;85.05;101482.49;5056985;57;1138794;-86
2020/12/21 04:17:54;;;;;;;48.70;22.33;;;;;;;0.31;85.03;101484.17;5081779;57;1138396;-85
2020/12/21 04:23:02;;;;;;;47.43;25.70;;;;;;;0.35;84.97;101483.23;5093622;57;1138256;-85
2020/12/21 04:28:07;;;;;;;41.63;20.43;;;;;;;0.35;85.01;101488.44;5065685;57;1138281;-86
2020/12/21 04:33:13;;;;;;;44.73;21.00;;;;;;;0.30;84.88;101498.55;5078896;57;1138347;-86
2020/12/21 04:38:19;;;;;;;39.45;20.60;;;;;;;0.30;84.96;101498.55;5144687;57;1136523;-86
2020/12/21 04:43:25;;;;;;;43.77;19.63;;;;;;;0.33;85.02;101491.95;5046910;57;1138266;-85
2020/12/21 04:48:33;;;;;;;46.53;21.87;;;;;;;0.32;85.08;101492.39;5091258;57;1138232;-85
2020/12/21 04:53:41;;;;;;;46.33;21.77;;;;;;;0.30;85.13;101502.00;5070768;57;1138558;-86
2020/12/21 04:58:47;;;;;;;49.70;23.00;;;;;;;0.32;85.21;101504.55;5095806;57;1138284;-86
2020/12/21 05:03:53;;;;;;;22.37;11.90;;;;;;;0.37;85.32;101507.92;5161442;57;1138365;-86
2020/12/21 05:09:09;;;;;;;56.35;26.20;;;;;;;0.39;85.66;101507.90;5062778;57;1138543;-86
2020/12/21 05:14:15;;;;;;;39.80;19.63;;;;;;;0.37;85.52;101512.27;5080596;57;1138359;-85
2020/12/21 05:19:24;;;;;;;32.30;15.75;;;;;;;0.40;85.74;101514.38;5117649;57;1138383;-85
2020/12/21 05:24:30;;;;;;;43.23;21.53;;;;;;;0.42;85.74;101510.45;5119743;57;1138253;-85
2020/12/21 05:29:35;;;;;;;30.17;14.50;;;;;;;0.39;85.83;101507.45;5113723;57;1138268;-85
2020/12/21 05:34:41;;;;;;;40.85;18.57;;;;;;;0.41;86.01;101501.78;5069215;57;1138686;-85
2020/12/21 05:39:55;;;;;;;45.37;22.13;;;;;;;0.43;85.90;101513.47;5101957;57;1138446;-85
2020/12/21 05:45:05;;;;;;;45.63;22.30;;;;;;;0.42;86.06;101506.55;5180143;57;21263;-86
2020/12/21 05:50:11;;;;;;;45.27;22.63;;;;;;;0.44;86.08;101512.58;5121267;57;1134263;-85
2020/12/21 05:55:16;;;;;;;46.30;21.67;;;;;;;0.47;86.06;101503.38;5072598;57;1138503;-85
2020/12/21 06:00:22;;;;;;;46.07;21.53;;;;;;;0.52;86.06;101506.76;5080167;56;1138456;-84
2020/12/21 06:05:29;;;;;;;41.90;21.20;;;;;;;0.58;86.14;101506.64;5141084;57;1136135;-85
2020/12/21 06:10:40;;;;;;;51.43;25.27;;;;;;;0.60;86.16;101517.89;5057045;57;1138746;-85
2020/12/21 06:15:49;;;;;;;46.80;21.10;;;;;;;0.61;86.19;101520.43;5089873;57;1138758;-85
2020/12/21 06:20:55;;;;;;;187.77;84.40;;;;;;;0.64;86.19;101521.67;5079859;57;1138766;-85
2020/12/21 06:26:14;;;;;;;118.17;51.83;;;;;;;0.72;86.25;101528.05;5096296;57;1140463;-85
2020/12/21 06:31:21;;;;;;;189.73;77.13;;;;;;;0.79;86.40;101517.03;5176227;57;21168;-84
2020/12/21 06:36:32;;;;;;;56.07;26.97;;;;;;;0.78;86.41;101517.48;5080296;57;1136402;-85
2020/12/21 06:41:38;;;;;;;42.00;20.80;;;;;;;0.79;86.20;101513.98;5117086;56;1148098;-85
2020/12/21 06:46:44;;;;;;;76.12;44.40;;;;;;;0.80;86.17;101512.23;5077965;57;1138648;-85
2020/12/21 06:51:51;;;;;;;74.50;44.37;;;;;;;0.81;86.31;101511.35;5140170;56;1136418;-84
2020/12/21 06:56:57;;;;;;;169.20;70.93;;;;;;;0.82;86.47;101511.77;5184543;57;21265;-85
2020/12/21 07:02:04;;;;;;;80.37;34.00;;;;;;;0.86;86.41;101514.28;5123597;56;1136357;-85
2020/12/21 07:07:09;;;;;;;152.37;69.17;;;;;;;0.88;86.35;101521.62;5065681;56;1138488;-85
2020/12/21 07:12:15;;;;;;;76.43;36.23;;;;;;;0.88;86.45;101528.13;5154275;56;1138362;-84
2020/12/21 07:17:20;;;;;;;158.97;67.30;;;;;;;0.85;86.51;101528.19;5157730;57;1138395;-85
2020/12/21 07:22:27;;;;;;;163.40;68.67;;;;;;;0.88;86.45;101533.34;5098747;56;1140583;-85
2020/12/21 07:27:35;;;;;;;107.20;53.87;;;;;;;0.94;86.54;101539.70;5139226;56;1140405;-85
2020/12/21 07:32:40;;;;;;;93.27;50.53;;;;;;;0.99;86.49;101533.09;5192124;57;21160;-85
2020/12/21 07:37:46;;;;;;;86.00;43.77;;;;;;;1.06;86.76;101529.48;5106291;56;1134254;-84
2020/12/21 07:42:54;;;;;;;96.55;46.77;;;;;;;1.06;86.78;101533.39;5099522;56;1138376;-85
2020/12/21 07:48:00;;;;;;;67.67;34.20;;;;;;;1.08;86.59;101526.81;5098986;56;1138398;-85
2020/12/21 07:53:06;;;;;;;46.67;22.23;;;;;;;1.10;86.50;101527.63;5045434;57;1138724;-85
2020/12/21 07:58:16;;;;;;;45.03;23.40;;;;;;;1.14;86.50;101529.29;5023400;57;1138321;-85
2020/12/21 08:03:25;;;;;;;48.87;25.10;;;;;;;1.15;86.56;101532.30;4981695;57;1138298;-86
2020/12/21 08:08:30;;;;;;;50.00;24.50;;;;;;;1.13;86.72;101531.03;5070120;56;1138231;-85
2020/12/21 08:13:37;;;;;;;99.22;47.78;;;;;;;1.17;86.69;101530.09;5089778;56;1138401;-85
2020/12/21 08:18:45;;;;;;;51.40;23.77;;;;;;;1.23;86.66;101523.41;5074539;56;1139238;-85
2020/12/21 08:23:58;;;;;;;49.93;24.23;;;;;;;1.28;86.71;101528.52;5205607;55;1140542;-85
2020/12/21 08:29:05;;;;;;;79.47;35.67;;;;;;;1.27;86.85;101538.09;5164515;55;1138281;-85
2020/12/21 08:34:14;;;;;;;46.47;23.07;;;;;;;1.26;86.80;101539.42;5214938;55;1136360;-85
2020/12/21 08:39:21;;;;;;;43.30;22.37;;;;;;;1.27;86.79;101542.00;5154291;55;1138568;-85
2020/12/21 08:44:29;;;;;;;46.67;25.13;;;;;;;1.29;86.86;101550.64;5164037;55;1138262;-85
2020/12/21 08:49:36;;;;;;;56.63;25.63;;;;;;;1.30;86.94;101560.17;5174026;55;1138498;-87
2020/12/21 08:54:41;;;;;;;60.37;26.67;;;;;;;1.30;87.00;101554.97;5196131;55;1138400;-86
2020/12/21 08:59:47;;;;;;;57.00;25.77;;;;;;;1.34;87.00;101555.31;5212204;55;1138783;-86
2020/12/21 09:04:52;;;;;;;60.80;27.75;;;;;;;1.38;87.06;101554.77;5143748;55;1139091;-86
2020/12/21 09:09:58;;;;;;;57.20;25.30;;;;;;;1.37;87.18;101557.86;5178581;55;1138338;-86
2020/12/21 09:15:04;;;;;;;45.20;22.00;;;;;;;1.41;87.15;101562.08;5173747;55;1138426;-86
2020/12/21 09:20:10;;;;;;;57.10;25.73;;;;;;;1.45;87.56;101563.32;5148690;55;1138211;-86
2020/12/21 09:25:16;;;;;;;55.50;26.02;;;;;;;1.43;87.48;101554.67;5182432;55;1138333;-86
2020/12/21 09:30:21;;;;;;;37.67;20.53;;;;;;;1.47;87.54;101559.80;5166015;55;1138272;-87
2020/12/21 09:35:27;;;;;;;44.00;21.47;;;;;;;1.53;87.56;101562.23;5180285;55;1138287;-86
2020/12/21 09:40:33;;;;;;;74.75;35.05;;;;;;;1.57;87.73;101559.97;5138579;55;1138483;-86
2020/12/21 09:45:38;;;;;;;63.20;32.13;;;;;;;1.62;87.75;101563.34;5122812;55;1214305;-86
2020/12/21 09:50:51;;;;;;;52.13;28.85;;;;;;;1.66;87.73;101557.61;5167021;55;1139268;-87
2020/12/21 09:55:57;;;;;;;82.93;43.43;;;;;;;1.73;87.75;101561.31;5183330;55;1138271;-86
2020/12/21 10:01:04;;;;;;;66.70;35.10;;;;;;;1.79;87.89;101553.80;5139030;55;1138554;-86
2020/12/21 10:06:12;;;;;;;36.57;18.67;;;;;;;1.84;87.86;101553.66;5157334;56;1138285;-87
2020/12/21 10:11:20;;;;;;;62.60;27.57;;;;;;;1.90;87.94;101550.91;5093164;56;1138718;-86
2020/12/21 10:16:26;;;;;;;71.50;30.73;;;;;;;1.95;87.93;101552.97;5142883;56;1138266;-86
2020/12/21 10:21:31;;;;;;;75.43;32.90;;;;;;;1.98;88.15;101548.54;5111406;56;1138323;-86
2020/12/21 10:26:42;;;;;;;73.10;30.37;;;;;;;2.04;88.15;101548.81;5127820;56;1138845;-87
2020/12/21 10:31:47;;;;;;;65.10;29.53;;;;;;;2.11;88.17;101541.24;5114006;56;1139120;-86
2020/12/21 10:36:54;;;;;;;174.75;63.60;;;;;;;2.22;88.17;101548.77;5154809;55;1140536;-87
2020/12/21 10:42:00;;;;;;;91.27;42.17;;;;;;;2.29;88.12;101539.90;4954323;57;1140980;-86
2020/12/21 10:47:05;;;;;;;55.67;26.33;;;;;;;2.31;88.28;101533.71;4961792;58;1138705;-86
2020/12/21 10:52:11;;;;;;;36.00;21.83;;;;;;;2.38;88.31;101537.88;4924002;58;1138555;-85
2020/12/21 10:57:16;;;;;;;51.43;26.97;;;;;;;2.43;88.47;101544.30;4944086;58;1138361;-85
2020/12/21 11:02:22;;;;;;;54.67;27.70;;;;;;;2.48;88.33;101534.11;4965703;57;1138310;-85
2020/12/21 11:07:28;;;;;;;69.87;34.47;;;;;;;2.58;88.31;101532.56;4990533;58;1140360;-85
2020/12/21 11:12:37;;;;;;;52.73;26.87;;;;;;;2.63;88.45;101537.18;4968198;58;1138893;-86
2020/12/21 11:17:43;;;;;;;48.98;26.37;;;;;;;2.72;88.43;101539.09;4970931;58;1138815;-86
2020/12/21 11:22:48;;;;;;;48.70;24.45;;;;;;;2.79;88.33;101534.53;4995721;58;1138416;-86
2020/12/21 11:27:54;;;;;;;37.25;20.72;;;;;;;2.88;88.27;101529.51;5007803;58;1138319;-86
2020/12/21 11:33:00;;;;;;;51.67;27.97;;;;;;;2.92;88.41;101521.95;4972639;58;1138454;-86
2020/12/21 11:38:06;;;;;;;61.23;28.03;;;;;;;2.95;88.35;101520.56;4961171;58;1138671;-84
2020/12/21 11:43:12;;;;;;;72.17;30.87;;;;;;;2.99;88.26;101520.44;4955095;58;1138278;-86
2020/12/21 11:48:25;;;;;;;49.40;24.37;;;;;;;3.05;88.22;101518.10;4941261;58;1140334;-87
2020/12/21 11:53:26;;;;;;;43.47;20.30;;;;;;;3.06;88.25;101510.19;4944708;58;1138254;-86
2020/12/21 11:58:32;;;;;;;47.83;25.95;;;;;;;3.09;88.31;101505.32;4924308;58;1138386;-85
2020/12/21 12:03:38;;;;;;;54.80;26.13;;;;;;;3.10;88.15;101500.05;4930840;58;1140972;-87
2020/12/21 12:08:43;;;;;;;66.83;29.67;;;;;;;3.19;88.18;101501.54;5027712;58;21473;-88
2020/12/21 12:13:50;;;;;;;58.80;27.22;;;;;;;3.22;88.21;101502.72;4898616;58;1134518;-87
2020/12/21 12:18:56;;;;;;;70.67;33.40;;;;;;;3.23;88.28;101502.27;4928982;58;1138304;-87
2020/12/21 12:24:01;;;;;;;48.33;24.50;;;;;;;3.27;88.38;101494.75;4921214;58;1138767;-89
2020/12/21 12:29:07;;;;;;;55.37;28.47;;;;;;;3.32;88.25;101501.55;4955990;58;1140367;-86
2020/12/21 12:34:13;;;;;;;45.63;23.10;;;;;;;3.37;88.22;101497.45;4978577;58;1140545;-87
2020/12/21 12:39:18;;;;;;;52.33;27.50;;;;;;;3.42;88.25;101493.80;4937334;58;1140552;-87
2020/12/21 12:44:24;;;;;;;40.00;21.07;;;;;;;3.46;88.24;101486.27;4990066;58;1138508;-87
2020/12/21 12:49:29;;;;;;;50.47;26.13;;;;;;;3.49;88.16;101488.78;4938940;58;1138365;-88
2020/12/21 12:54:36;;;;;;;31.70;14.60;;;;;;;3.51;88.15;101484.33;4945183;58;1140424;-87
2020/12/21 12:59:41;;;;;;;58.75;29.42;;;;;;;3.56;88.30;101489.42;4947170;58;1140531;-89
2020/12/21 13:04:47;;;;;;;49.17;25.97;;;;;;;3.60;88.29;101483.19;5000316;58;1140532;-87
2020/12/21 13:09:53;;;;;;;28.97;14.80;;;;;;;3.66;88.33;101486.07;4991303;58;1140454;-88
2020/12/21 13:14:58;;;;;;;26.15;14.03;;;;;;;3.66;88.33;101486.07;4958803;57;1140468;-88
2020/12/21 13:20:04;;;;;;;40.40;23.10;;;;;;;3.71;88.25;101492.84;5000216;57;1140327;-88
2020/12/21 13:25:09;;;;;;;51.53;21.93;;;;;;;3.72;88.09;101490.63;5031904;58;1140506;-88
2020/12/21 13:30:15;;;;;;;47.00;25.67;;;;;;;3.74;88.14;101495.36;5058713;58;1138373;-87
2020/12/21 13:35:21;;;;;;;78.40;38.13;;;;;;;3.75;88.04;101498.37;5007551;58;1138361;-88
2020/12/21 13:40:27;;;;;;;49.10;27.03;;;;;;;3.80;88.01;101494.30;5082688;58;1138411;-88
2020/12/21 13:45:32;;;;;;;56.67;29.83;;;;;;;3.83;87.88;101486.33;5014177;58;1141304;-89
2020/12/21 13:50:38;;;;;;;48.27;25.87;;;;;;;3.80;87.84;101493.00;5057339;58;1136122;-88
2020/12/21 13:55:43;;;;;;;43.42;23.27;;;;;;;3.80;87.72;101487.77;5009927;58;1138617;-88
2020/12/21 14:00:49;;;;;;;44.25;23.50;;;;;;;3.74;87.50;101483.58;4999317;58;1141028;-91
2020/12/21 14:05:55;;;;;;;59.80;27.87;;;;;;;3.67;87.29;101474.67;4997453;58;1140483;-85
2020/12/21 14:11:01;;;;;;;77.40;36.93;;;;;;;3.59;87.17;101471.47;5016240;58;1140460;-88
2020/12/21 14:16:19;;;;;;;55.87;28.77;;;;;;;3.52;87.11;101478.66;5005931;57;1140442;-88
2020/12/21 14:21:26;;;;;;;53.87;28.27;;;;;;;3.47;87.18;101476.66;5000716;57;1138247;-88
2020/12/21 14:26:33;;;;;;;71.67;35.77;;;;;;;3.39;87.10;101476.05;5000610;58;1138466;-88
2020/12/21 14:31:40;;;;;;;78.07;36.33;;;;;;;3.36;87.09;101474.37;5049497;58;1138316;-88
2020/12/21 14:36:46;;;;;;;74.85;41.18;;;;;;;3.34;86.97;101478.83;5009748;58;1140531;-88
2020/12/21 14:41:51;;;;;;;82.40;44.05;;;;;;;3.30;87.06;101473.73;5017047;58;1138425;-88
2020/12/21 14:46:58;;;;;;;73.43;36.07;;;;;;;3.24;87.11;101480.00;5083301;58;1136247;-88
2020/12/21 14:52:03;;;;;;;50.50;27.80;;;;;;;3.18;87.01;101482.84;5075289;58;1138575;-86
2020/12/21 14:57:11;;;;;;;52.37;25.50;;;;;;;3.17;86.97;101485.05;4975501;58;1140316;-87
2020/12/21 15:02:16;;;;;;;70.50;35.10;;;;;;;3.17;87.04;101481.98;4981858;58;1140444;-88
2020/12/21 15:07:22;;;;;;;140.70;72.27;;;;;;;3.11;87.01;101476.08;5005174;58;1138411;-87
2020/12/21 15:12:34;;;;;;;256.00;119.13;;;;;;;3.06;87.01;101475.35;4993797;58;1140581;-86
2020/12/21 15:17:36;;;;;;;133.70;67.87;;;;;;;3.03;87.01;101478.09;5023000;58;1144560;-87
2020/12/21 15:22:41;;;;;;;106.17;49.33;;;;;;;2.99;86.96;101469.48;5004335;58;1142361;-90
2020/12/21 15:27:47;;;;;;;79.63;42.10;;;;;;;2.98;87.04;101474.75;4997229;58;1142550;-87
2020/12/21 15:32:52;;;;;;;146.62;71.85;;;;;;;2.92;87.13;101467.95;5006596;58;1138291;-86
2020/12/21 15:37:58;;;;;;;238.40;129.17;;;;;;;2.81;86.88;101457.84;4996234;58;1140429;-87
2020/12/21 15:43:04;;;;;;;194.30;102.87;;;;;;;2.81;86.88;101457.84;4966777;58;1144571;-86
2020/12/21 15:48:09;;;;;;;157.13;111.97;;;;;;;2.91;87.05;101467.99;4970966;58;1142446;-88
2020/12/21 15:53:15;;;;;;;97.13;58.33;;;;;;;2.88;87.20;101461.58;4970948;58;1142558;-87
2020/12/21 15:58:20;;;;;;;135.30;63.03;;;;;;;2.81;87.16;101459.14;4814392;59;1138519;-86
2020/12/21 16:03:26;;;;;;;600.53;185.30;;;;;;;2.82;87.04;101458.69;4837351;60;1140543;-86
2020/12/21 16:08:33;;;;;;;414.80;131.70;;;;;;;2.86;87.08;101462.93;4779462;59;1144770;-86
2020/12/21 16:13:39;;;;;;;319.37;130.50;;;;;;;2.91;87.07;101464.07;5083863;56;1144582;-86
2020/12/21 16:18:44;;;;;;;151.12;63.45;;;;;;;2.89;86.96;101465.45;5087198;56;1142473;-87
2020/12/21 16:23:50;;;;;;;112.62;57.17;;;;;;;2.83;86.83;101466.94;5075619;57;1140674;-87
2020/12/21 16:28:56;;;;;;;165.50;79.67;;;;;;;2.78;86.69;101459.68;5076917;57;1140510;-86
2020/12/21 16:34:01;;;;;;;299.55;102.97;;;;;;;2.76;86.68;101454.95;5071625;56;1142854;-87
2020/12/21 16:39:07;;;;;;;355.53;146.77;;;;;;;2.76;86.66;101453.19;5076790;56;1144560;-87
2020/12/21 16:44:12;;;;;;;207.63;76.97;;;;;;;2.71;86.68;101451.19;5070994;56;1142519;-86
2020/12/21 16:49:18;;;;;;;164.77;78.40;;;;;;;2.67;86.55;101446.09;5076608;56;1140466;-86
2020/12/21 16:54:24;;;;;;;71.93;36.03;;;;;;;2.61;86.52;101450.19;5093602;56;1140600;-87
2020/12/21 16:59:30;;;;;;;61.63;31.60;;;;;;;2.60;86.53;101441.50;5070983;57;1140479;-87
2020/12/21 17:04:36;;;;;;;82.80;42.13;;;;;;;2.60;86.64;101440.67;5066086;57;1138335;-87
2020/12/21 17:09:41;;;;;;;90.30;36.97;;;;;;;2.55;86.70;101433.41;5077189;56;1138262;-87
2020/12/21 17:14:47;;;;;;;109.10;41.33;;;;;;;2.50;86.66;101440.07;5035423;57;1138745;-87
2020/12/21 17:19:52;;;;;;;131.70;54.18;;;;;;;2.48;86.61;101426.20;5041018;57;1140583;-87
2020/12/21 17:24:58;;;;;;;142.55;61.63;;;;;;;2.51;86.71;101437.86;5034852;57;1142403;-87
2020/12/21 17:30:05;;;;;;;244.57;81.23;;;;;;;2.55;86.81;101432.97;5042953;57;1140510;-86
2020/12/21 17:35:10;;;;;;;243.05;86.40;;;;;;;2.55;86.92;101426.44;5022055;57;1140320;-86
2020/12/21 17:40:16;;;;;;;222.23;82.50;;;;;;;2.55;86.80;101418.60;5028320;57;1140650;-86
2020/12/21 17:45:22;;;;;;;320.73;141.33;;;;;;;2.56;86.64;101416.84;5041248;57;1140471;-86
2020/12/21 17:50:27;;;;;;;147.80;77.13;;;;;;;2.58;86.77;101414.60;5038030;57;1142635;-86
2020/12/21 17:55:33;;;;;;;106.40;43.97;;;;;;;2.59;86.84;101414.16;5039251;57;1140425;-87
2020/12/21 18:00:41;;;;;;;108.95;50.98;;;;;;;2.54;86.84;101413.42;5030841;57;1140452;-87
2020/12/21 18:05:47;;;;;;;54.47;28.93;;;;;;;2.55;86.72;101404.24;5042349;57;1140754;-87
2020/12/21 18:10:52;;;;;;;65.47;31.87;;;;;;;2.56;86.56;101401.19;5054902;57;1140435;-87
2020/12/21 18:15:58;;;;;;;89.80;41.40;;;;;;;2.54;86.64;101405.59;5054648;57;1138695;-87
2020/12/21 18:21:03;;;;;;;50.77;26.87;;;;;;;2.52;86.85;101402.16;5013083;57;1138695;-87
2020/12/21 18:26:09;;;;;;;74.33;32.40;;;;;;;2.53;86.68;101398.66;5062015;56;1138439;-87
2020/12/21 18:31:14;;;;;;;102.63;46.10;;;;;;;2.52;86.51;101395.64;5074308;56;1140413;-87
2020/12/21 18:36:21;;;;;;;83.20;38.67;;;;;;;2.50;86.57;101396.98;5064219;56;1140784;-87
2020/12/21 18:41:26;;;;;;;157.07;62.63;;;;;;;2.48;86.69;101390.95;5063053;57;1138371;-87
2020/12/21 18:46:42;;;;;;;134.00;51.33;;;;;;;2.48;86.50;101397.48;5036733;57;1140392;-87
2020/12/21 18:51:49;;;;;;;114.47;43.30;;;;;;;2.45;86.40;101399.73;5042228;57;1140807;-87
2020/12/21 18:56:57;;;;;;;140.50;56.10;;;;;;;2.45;86.51;101397.12;5046685;57;1140385;-87
2020/12/21 19:02:06;;;;;;;165.47;72.63;;;;;;;2.37;86.07;101395.66;5046049;57;1140926;-87
2020/12/21 19:07:11;;;;;;;104.37;47.97;;;;;;;2.27;85.95;101386.39;5039978;57;1140829;-87
2020/12/21 19:12:17;;;;;;;105.27;43.17;;;;;;;2.24;86.19;101387.78;5030324;57;1140870;-87
2020/12/21 19:17:22;;;;;;;84.55;40.80;;;;;;;2.22;86.01;101386.97;5006626;57;1140327;-86
2020/12/21 19:22:28;;;;;;;108.83;49.03;;;;;;;2.20;85.96;101377.02;5005216;57;1138496;-86
2020/12/21 19:27:34;;;;;;;104.57;47.27;;;;;;;2.20;86.33;101380.48;5040193;57;1140381;-87
2020/12/21 19:32:39;;;;;;;96.07;42.63;;;;;;;2.18;86.54;101370.54;5067939;56;1140995;-87
2020/12/21 19:37:45;;;;;;;112.37;53.73;;;;;;;2.19;86.45;101378.77;5067533;56;1138265;-88
2020/12/21 19:42:50;;;;;;;139.23;67.07;;;;;;;2.20;86.12;101378.33;4998819;57;1140382;-87
2020/12/21 19:47:56;;;;;;;98.13;45.10;;;;;;;2.22;86.34;101359.56;5055442;57;1140318;-87
2020/12/21 19:53:01;;;;;;;70.17;32.67;;;;;;;2.20;86.51;101354.84;4916327;58;1138459;-87
2020/12/21 19:58:10;;;;;;;61.70;30.10;;;;;;;2.16;86.65;101359.28;5032227;57;1138482;-87
2020/12/21 20:03:14;;;;;;;68.40;33.87;;;;;;;2.14;86.30;101361.08;5022379;57;1138667;-87
2020/12/21 20:08:21;;;;;;;70.77;33.20;;;;;;;2.11;86.21;101364.66;5060641;57;1139176;-86
2020/12/21 20:13:26;;;;;;;63.73;29.60;;;;;;;2.10;86.26;101356.43;5040584;57;1138331;-86
2020/12/21 20:18:32;;;;;;;61.33;29.23;;;;;;;2.10;86.53;101346.44;5019668;57;1138274;-87
2020/12/21 20:23:37;;;;;;;69.33;30.27;;;;;;;2.10;86.93;101343.38;4993047;57;1138384;-86
2020/12/21 20:28:43;;;;;;;59.10;27.75;;;;;;;2.13;86.68;101337.22;5095480;57;1138325;-86
2020/12/21 20:33:49;;;;;;;62.80;29.63;;;;;;;2.15;86.65;101318.88;5092621;57;1138723;-87
2020/12/21 20:38:55;;;;;;;69.03;32.93;;;;;;;2.16;86.67;101321.45;5130915;57;1138286;-86
2020/12/21 20:44:02;;;;;;;68.97;31.83;;;;;;;2.17;86.65;101323.61;5084006;57;1138227;-87
2020/12/21 20:49:08;;;;;;;75.53;34.80;;;;;;;2.10;86.44;101305.55;5106797;57;1138388;-87
2020/12/21 20:54:13;;;;;;;76.47;35.60;;;;;;;2.10;86.29;101314.67;5096177;57;1138609;-87
2020/12/21 20:59:20;;;;;;;70.50;32.73;;;;;;;2.10;86.28;101313.38;5048378;56;1138255;-87
2020/12/21 21:04:26;;;;;;;77.93;33.37;;;;;;;2.08;86.44;101296.05;5108659;57;1138245;-87
2020/12/21 21:09:31;;;;;;;62.07;27.63;;;;;;;2.03;86.45;101291.41;5080886;57;1138322;-87
2020/12/21 21:14:37;;;;;;;60.70;30.03;;;;;;;2.01;86.23;101286.69;5049060;57;1138522;-87
2020/12/21 21:19:42;;;;;;;67.43;30.30;;;;;;;2.00;86.25;101277.15;5034030;57;1138747;-86
2020/12/21 21:24:49;;;;;;;69.87;31.30;;;;;;;2.00;86.37;101269.32;5058110;57;1138555;-87
2020/12/21 21:29:55;;;;;;;74.60;30.33;;;;;;;1.94;86.36;101259.95;5042647;57;1138851;-88
2020/12/21 21:35:01;;;;;;;67.80;31.65;;;;;;;1.93;86.30;101262.59;5037242;57;1138799;-87
2020/12/21 21:40:07;;;;;;;69.20;32.00;;;;;;;1.89;86.14;101255.76;4976560;57;1138344;-87
2020/12/21 21:45:12;;;;;;;70.57;34.15;;;;;;;1.87;86.30;101249.73;5041682;56;1138248;-87
2020/12/21 21:50:18;;;;;;;76.67;36.87;;;;;;;1.80;86.37;101246.92;4993332;57;1138796;-87
2020/12/21 21:55:23;;;;;;;132.03;49.43;;;;;;;1.74;86.54;101238.36;4848640;59;1138787;-87
2020/12/21 22:00:29;;;;;;;66.57;33.00;;;;;;;1.70;86.59;101231.52;4849712;58;1140831;-87
2020/12/21 22:05:37;;;;;;;100.80;41.70;;;;;;;1.70;86.39;101234.13;4947565;58;1138197;-87
2020/12/21 22:10:43;;;;;;;77.00;33.80;;;;;;;1.65;86.65;101221.70;4933841;58;1140326;-87
2020/12/21 22:15:48;;;;;;;71.33;32.43;;;;;;;1.61;86.82;101215.31;4970837;58;1138320;-86
2020/12/21 22:20:54;;;;;;;66.93;33.00;;;;;;;1.60;86.63;101203.17;4941149;58;1138295;-87
2020/12/21 22:26:00;;;;;;;79.80;35.67;;;;;;;1.63;86.80;101197.88;4950779;58;1138318;-87
2020/12/21 22:31:06;;;;;;;90.65;42.53;;;;;;;1.63;86.66;101190.91;4923409;58;1138442;-88
2020/12/21 22:36:12;;;;;;;88.93;39.40;;;;;;;1.56;86.68;101177.64;4794471;59;1138809;-87
2020/12/21 22:41:17;;;;;;;102.67;42.77;;;;;;;1.53;86.77;101173.81;4914176;58;1138312;-87
2020/12/21 22:46:23;;;;;;;99.80;44.13;;;;;;;1.55;86.76;101166.80;4907134;57;1140402;-87
2020/12/21 22:51:29;;;;;;;85.70;37.23;;;;;;;1.57;86.70;101158.49;4985866;57;1138262;-87